createdAt,value
2019-02-28T00:19:37.000Z,66.70
2019-02-28T00:22:06.642Z,66.80
2019-02-28T00:24:35.449Z,67.00
2019-02-28T00:27:04.216Z,67.30
2019-02-28T00:29:33.754Z,68.00
2019-02-28T00:32:03.276Z,67.10
2019-02-28T00:34:33.079Z,67.30
2019-02-28T00:37:01.899Z,67.30
2019-02-28T00:39:31.405Z,67.40
2019-02-28T00:42:01.183Z,67.70
2019-02-28T00:44:31.210Z,68.30
2019-02-28T00:47:00.124Z,69.30
2019-02-28T00:49:28.807Z,69.90
2019-02-28T00:51:57.447Z,69.50
2019-02-28T00:54:25.995Z,69.30
2019-02-28T00:56:54.777Z,68.70
2019-02-28T00:59:23.583Z,68.70
2019-02-28T01:11:36.627Z,67.90
2019-02-28T01:14:05.318Z,69.30
2019-02-28T01:16:33.969Z,69.50
2019-02-28T01:19:02.711Z,69.40
2019-02-28T01:21:31.487Z,69.70
2019-02-28T01:24:00.864Z,70.20
2019-02-28T01:26:30.608Z,70.00
2019-02-28T01:29:01.988Z,69.20
2019-02-28T01:31:29.503Z,70.00
2019-02-28T01:33:58.732Z,69.50
2019-02-28T01:36:28.213Z,70.60
2019-02-28T01:38:58.074Z,70.80
2019-02-28T01:41:27.355Z,71.60
2019-02-28T01:43:55.931Z,72.20
2019-02-28T01:46:24.498Z,72.90
2019-02-28T01:48:54.559Z,73.90
2019-02-28T01:51:23.348Z,74.20
2019-02-28T01:53:53.588Z,74.30
2019-02-28T01:56:22.320Z,74.50
2019-02-28T01:58:51.144Z,74.50
2019-02-28T02:01:20.027Z,74.70
2019-02-28T02:03:48.819Z,75.80
2019-02-28T02:06:17.529Z,75.10
2019-02-28T02:08:46.187Z,75.10
2019-02-28T02:11:14.903Z,75.00
2019-02-28T02:13:43.501Z,74.80
2019-02-28T02:16:12.132Z,74.60
2019-02-28T02:18:43.323Z,74.40
2019-02-28T02:21:11.093Z,74.90
2019-02-28T02:23:39.744Z,75.00
2019-02-28T02:26:11.284Z,74.30
2019-02-28T02:28:38.705Z,73.80
2019-02-28T02:31:07.359Z,73.50
2019-02-28T02:33:36.030Z,73.00
2019-02-28T02:36:04.733Z,72.40
2019-02-28T02:38:40.111Z,71.80
2019-02-28T02:41:04.897Z,72.00
2019-02-28T02:43:33.654Z,71.70
2019-02-28T02:46:02.326Z,72.00
2019-02-28T02:48:31.023Z,71.70
2019-02-28T02:50:59.806Z,70.80
2019-02-28T02:53:28.399Z,71.60
2019-02-28T02:56:03.611Z,71.80
2019-02-28T02:58:28.213Z,70.90
2019-02-28T03:00:57.077Z,70.90
2019-02-28T03:03:26.029Z,71.10
2019-02-28T03:05:54.724Z,71.00
2019-02-28T03:08:23.512Z,70.80
2019-02-28T03:10:53.186Z,71.10
2019-02-28T03:13:21.931Z,71.10
2019-02-28T03:15:50.590Z,71.30
2019-02-28T03:18:20.579Z,71.70
2019-02-28T03:20:49.396Z,71.80
2019-02-28T03:23:17.896Z,71.50
2019-02-28T03:25:46.564Z,71.20
2019-02-28T03:28:15.186Z,72.00
2019-02-28T03:30:44.330Z,72.30
2019-02-28T03:33:23.434Z,72.40
2019-02-28T03:35:45.470Z,73.10
2019-02-28T03:38:14.221Z,72.60
2019-02-28T03:41:19.355Z,72.30
2019-02-28T03:44:10.614Z,72.00
2019-02-28T03:47:44.984Z,72.00
2019-02-28T03:50:44.836Z,72.10
2019-02-28T04:07:21.222Z,73.10
2019-02-28T04:12:14.734Z,72.80
2019-02-28T04:28:41.349Z,72.90
2019-02-28T04:31:20.980Z,74.10
2019-02-28T04:33:55.929Z,73.70
2019-02-28T04:36:35.826Z,73.30
2019-02-28T04:42:11.867Z,74.40
2019-02-28T04:48:05.795Z,74.40
2019-02-28T05:00:40.350Z,74.40
2019-02-28T05:03:20.035Z,73.90
2019-02-28T05:05:48.634Z,73.80
2019-02-28T05:08:17.264Z,74.00
2019-02-28T05:10:46.367Z,74.00
2019-02-28T05:13:15.288Z,74.00
2019-02-28T05:15:43.968Z,73.30
2019-02-28T05:18:27.625Z,73.80
2019-02-28T05:20:55.118Z,73.90
2019-02-28T05:23:23.906Z,74.40
2019-02-28T05:25:55.090Z,74.00
2019-02-28T05:28:23.903Z,73.60
2019-02-28T05:30:53.754Z,72.40
2019-02-28T05:33:24.587Z,73.50
2019-02-28T05:35:53.033Z,74.80
2019-02-28T05:38:37.394Z,75.40
2019-02-28T05:41:23.822Z,74.90
2019-02-28T05:46:41.296Z,75.70
2019-02-28T05:49:19.286Z,76.00
2019-02-28T05:51:47.959Z,76.30
2019-02-28T05:54:17.217Z,75.90
2019-02-28T05:56:45.956Z,76.30
2019-02-28T05:59:14.762Z,76.60
2019-02-28T06:01:50.173Z,76.40
2019-02-28T06:04:19.143Z,76.00
2019-02-28T06:06:51.291Z,76.60
2019-02-28T06:09:21.106Z,75.30
2019-02-28T06:11:53.986Z,75.40
2019-02-28T06:14:27.566Z,75.70
2019-02-28T06:16:53.648Z,75.20
2019-02-28T06:19:22.403Z,76.20
2019-02-28T06:21:52.970Z,74.70
2019-02-28T06:24:21.618Z,74.90
2019-02-28T06:26:50.390Z,76.10
2019-02-28T06:29:19.034Z,75.80
2019-02-28T06:31:48.647Z,75.80
2019-02-28T06:34:18.031Z,76.50
2019-02-28T06:36:46.677Z,77.00
2019-02-28T06:39:17.451Z,76.40
2019-02-28T06:41:45.994Z,76.30
2019-02-28T06:44:14.646Z,75.80
2019-02-28T06:46:43.378Z,75.20
2019-02-28T06:49:11.999Z,75.40
2019-02-28T06:51:40.663Z,75.80
2019-02-28T06:54:09.312Z,76.60
2019-02-28T06:56:37.961Z,76.40
2019-02-28T06:59:06.524Z,75.90
2019-02-28T07:01:36.822Z,76.90
2019-02-28T07:04:05.702Z,77.00
2019-02-28T07:06:35.966Z,77.20
2019-02-28T07:09:06.074Z,78.50
2019-02-28T07:11:34.888Z,79.30
2019-02-28T07:14:03.548Z,79.60
2019-02-28T07:16:34.532Z,80.20
2019-02-28T07:19:02.577Z,80.20
2019-02-28T07:21:31.314Z,81.30
2019-02-28T07:24:02.486Z,80.70
2019-02-28T07:26:30.502Z,79.60
2019-02-28T07:28:59.235Z,79.90
2019-02-28T07:31:27.916Z,81.20
2019-02-28T07:33:56.686Z,81.90
2019-02-28T07:36:25.470Z,83.80
2019-02-28T07:38:54.188Z,87.10
2019-02-28T07:41:26.359Z,89.00
2019-02-28T07:43:53.226Z,90.50
2019-02-28T07:46:21.936Z,91.40
2019-02-28T07:48:50.670Z,91.40
2019-02-28T07:51:22.688Z,91.30
2019-02-28T07:53:49.758Z,92.00
2019-02-28T07:56:18.448Z,92.10
2019-02-28T07:58:46.998Z,92.40
2019-02-28T08:01:15.784Z,92.60
2019-02-28T08:03:44.953Z,92.70
2019-02-28T08:06:13.710Z,92.80
2019-02-28T08:08:42.342Z,93.50
2019-02-28T08:11:11.095Z,93.70
2019-02-28T08:13:39.732Z,93.90
2019-02-28T08:16:08.556Z,94.00
2019-02-28T08:18:37.304Z,94.10
2019-02-28T08:21:08.701Z,94.40
2019-02-28T08:23:37.611Z,94.20
2019-02-28T08:26:06.308Z,94.20
2019-02-28T08:28:36.729Z,94.20
2019-02-28T08:31:05.474Z,94.20
2019-02-28T08:33:34.134Z,94.20
2019-02-28T08:36:02.781Z,94.20
2019-02-28T08:38:34.285Z,94.10
2019-02-28T08:41:01.670Z,94.00
2019-02-28T08:43:30.254Z,93.80
2019-02-28T08:45:58.965Z,93.90
2019-02-28T08:48:31.552Z,93.70
2019-02-28T08:50:59.547Z,93.60
2019-02-28T08:53:28.110Z,93.40
2019-02-28T08:55:56.775Z,93.50
2019-02-28T08:58:25.299Z,93.40
2019-02-28T09:00:53.934Z,93.40
2019-02-28T09:03:26.891Z,93.40
2019-02-28T09:05:53.010Z,93.30
2019-02-28T09:08:22.414Z,93.10
2019-02-28T09:10:51.878Z,93.00
2019-02-28T09:13:20.790Z,92.90
2019-02-28T09:15:50.660Z,92.80
2019-02-28T09:18:19.290Z,92.60
2019-02-28T09:20:47.980Z,92.80
2019-02-28T09:23:16.688Z,92.80
2019-02-28T09:25:45.378Z,92.70
2019-02-28T09:28:14.031Z,92.50
2019-02-28T09:30:44.588Z,92.40
2019-02-28T09:33:13.344Z,92.20
2019-02-28T09:35:45.627Z,92.10
2019-02-28T09:38:13.750Z,91.80
2019-02-28T09:40:42.547Z,91.60
2019-02-28T09:43:11.173Z,91.30
2019-02-28T09:45:41.047Z,91.10
2019-02-28T09:48:09.950Z,90.40
2019-02-28T09:50:38.656Z,90.50
2019-02-28T09:53:07.331Z,90.50
2019-02-28T09:55:39.253Z,90.30
2019-02-28T09:58:08.016Z,90.20
2019-02-28T10:00:37.188Z,90.00
2019-02-28T10:03:06.815Z,89.80
2019-02-28T10:05:38.940Z,89.70
2019-02-28T10:08:07.095Z,89.60
2019-02-28T10:10:36.111Z,89.20
2019-02-28T10:13:04.904Z,88.90
2019-02-28T10:15:33.680Z,88.90
2019-02-28T10:18:04.441Z,89.00
2019-02-28T10:20:35.263Z,89.40
2019-02-28T10:23:04.073Z,89.00
2019-02-28T10:25:32.930Z,88.90
2019-02-28T10:28:02.800Z,88.90
2019-02-28T10:30:32.696Z,88.10
2019-02-28T10:33:01.578Z,88.10
2019-02-28T10:35:33.420Z,87.50
2019-02-28T10:38:00.936Z,87.10
2019-02-28T10:40:31.552Z,86.10
2019-02-28T10:43:00.258Z,84.00
2019-02-28T10:45:30.670Z,82.30
2019-02-28T10:48:02.933Z,82.40
2019-02-28T10:50:35.822Z,83.10
2019-02-28T10:53:06.024Z,83.00
2019-02-28T10:55:35.114Z,83.50
2019-02-28T10:58:04.032Z,83.70
2019-02-28T11:00:39.651Z,84.00
2019-02-28T11:03:08.438Z,84.40
2019-02-28T11:05:39.042Z,84.90
2019-02-28T11:08:09.763Z,85.30
2019-02-28T11:10:41.301Z,84.40
2019-02-28T11:13:20.403Z,84.40
2019-02-28T11:15:50.151Z,84.90
2019-02-28T11:20:58.355Z,86.20
2019-02-28T11:23:28.201Z,87.40
2019-02-28T11:25:57.187Z,87.50
2019-02-28T11:28:28.307Z,87.60
2019-02-28T11:30:58.108Z,87.00
2019-02-28T11:33:36.445Z,85.00
2019-02-28T11:36:07.483Z,84.20
2019-02-28T11:38:36.603Z,84.90
2019-02-28T11:41:11.074Z,83.70
2019-02-28T11:43:40.047Z,83.00
2019-02-28T11:46:09.858Z,83.20
2019-02-28T11:48:38.611Z,83.50
2019-02-28T11:51:07.413Z,83.60
2019-02-28T11:53:39.372Z,83.50
2019-02-28T11:56:06.846Z,83.90
2019-02-28T11:58:35.615Z,84.30
2019-02-28T12:01:10.227Z,85.70
2019-02-28T12:03:35.741Z,85.80
2019-02-28T12:06:06.828Z,85.40
2019-02-28T12:08:35.855Z,85.20
2019-02-28T12:11:04.622Z,85.70
2019-02-28T12:13:33.475Z,83.80
2019-02-28T12:16:02.245Z,83.20
2019-02-28T12:18:31.123Z,82.70
2019-02-28T12:21:02.071Z,82.70
2019-02-28T12:23:30.534Z,82.40
2019-02-28T12:25:59.863Z,81.30
2019-02-28T12:28:28.486Z,82.20
2019-02-28T12:31:00.124Z,81.80
2019-02-28T12:33:27.690Z,81.20
2019-02-28T12:36:53.232Z,81.60
2019-02-28T12:39:23.653Z,81.20
2019-02-28T12:45:53.651Z,80.70
2019-02-28T12:48:22.502Z,80.80
2019-02-28T12:54:56.913Z,79.50
2019-02-28T12:57:25.678Z,79.00
2019-02-28T13:03:25.053Z,78.10
2019-02-28T13:09:30.374Z,77.60
2019-02-28T13:17:48.563Z,77.00
2019-02-28T13:21:06.049Z,77.50
2019-02-28T13:26:45.311Z,79.80
2019-02-28T13:29:14.184Z,79.30
2019-02-28T13:31:45.599Z,79.00
2019-02-28T13:34:14.333Z,79.40
2019-02-28T13:36:43.101Z,80.40
2019-02-28T13:39:12.023Z,80.50
2019-02-28T13:41:40.765Z,80.50
2019-02-28T13:44:09.622Z,80.40
2019-02-28T13:46:38.379Z,79.40
2019-02-28T13:49:08.503Z,80.60
2019-02-28T13:51:42.004Z,80.50
2019-02-28T13:54:08.137Z,81.10
2019-02-28T13:56:36.992Z,82.00
2019-02-28T13:59:05.741Z,82.50
2019-02-28T14:01:34.472Z,81.90
2019-02-28T14:04:03.237Z,81.10
2019-02-28T14:06:32.089Z,80.70
2019-02-28T14:09:01.039Z,80.30
2019-02-28T14:11:30.889Z,79.80
2019-02-28T14:13:59.525Z,79.80
2019-02-28T14:16:28.276Z,80.00
2019-02-28T14:18:56.985Z,79.60
2019-02-28T14:21:26.273Z,80.00
2019-02-28T14:23:55.910Z,79.50
2019-02-28T14:26:25.914Z,79.20
2019-02-28T14:28:54.613Z,79.00
2019-02-28T14:31:23.567Z,78.40
2019-02-28T14:33:54.389Z,76.70
2019-02-28T14:36:22.975Z,77.00
2019-02-28T14:38:51.763Z,76.20
2019-02-28T14:41:20.575Z,76.40
2019-02-28T14:43:49.370Z,75.80
2019-02-28T14:46:19.108Z,75.90
2019-02-28T14:48:48.256Z,75.80
2019-02-28T14:51:17.050Z,75.70
2019-02-28T14:53:49.238Z,75.50
2019-02-28T14:56:16.078Z,75.80
2019-02-28T14:58:44.707Z,76.40
2019-02-28T15:01:16.822Z,76.20
2019-02-28T15:03:43.979Z,75.70
2019-02-28T15:06:14.015Z,76.30
2019-02-28T15:08:43.788Z,76.10
2019-02-28T15:11:12.596Z,77.10
2019-02-28T15:13:41.377Z,78.50
2019-02-28T15:16:10.437Z,81.40
2019-02-28T15:18:39.257Z,82.60
2019-02-28T15:21:09.696Z,83.60
2019-02-28T15:23:38.518Z,84.30
2019-02-28T15:26:07.363Z,85.90
2019-02-28T15:28:36.209Z,87.60
2019-02-28T15:31:05.746Z,89.80
2019-02-28T15:33:35.231Z,90.80
2019-02-28T15:36:04.159Z,91.50
2019-02-28T15:38:32.827Z,92.60
2019-02-28T15:41:03.723Z,92.30
2019-02-28T15:43:33.314Z,92.50
2019-02-28T15:46:05.326Z,92.60
2019-02-28T15:48:34.621Z,92.60
2019-02-28T15:51:04.815Z,92.60
2019-02-28T15:53:36.797Z,92.60
2019-02-28T15:56:13.040Z,92.80
2019-02-28T15:58:37.627Z,92.80
2019-02-28T16:01:06.768Z,92.90
2019-02-28T16:03:37.015Z,92.80
2019-02-28T16:06:05.693Z,93.10
2019-02-28T16:08:34.349Z,93.30
2019-02-28T16:11:03.264Z,93.30
2019-02-28T16:13:33.639Z,93.50
2019-02-28T16:16:02.419Z,93.00
2019-02-28T16:18:31.129Z,93.40
2019-02-28T16:20:59.873Z,93.20
2019-02-28T16:23:31.069Z,93.10
2019-02-28T16:25:59.902Z,93.20
2019-02-28T16:28:35.195Z,93.20
2019-02-28T16:31:08.900Z,93.10
2019-02-28T16:33:39.796Z,93.40
2019-02-28T16:36:13.022Z,93.10
2019-02-28T16:38:45.055Z,93.30
2019-02-28T16:41:14.597Z,94.00
2019-02-28T16:43:46.600Z,93.60
2019-02-28T16:46:16.178Z,93.70
2019-02-28T16:48:45.209Z,93.60
2019-02-28T16:51:13.918Z,93.70
2019-02-28T16:53:42.642Z,93.70
2019-02-28T16:56:11.466Z,93.30
2019-02-28T16:58:40.243Z,93.60
2019-02-28T17:01:09.130Z,93.20
2019-02-28T17:03:38.333Z,93.50
2019-02-28T17:06:08.362Z,93.40
2019-02-28T17:08:38.680Z,93.50
2019-02-28T17:11:07.378Z,93.10
2019-02-28T17:13:40.227Z,92.40
2019-02-28T17:16:10.640Z,92.50
2019-02-28T17:18:40.907Z,92.70
2019-02-28T17:21:13.100Z,92.90
2019-02-28T17:23:40.011Z,92.70
2019-02-28T17:26:08.778Z,91.70
2019-02-28T17:28:46.582Z,91.40
2019-02-28T17:31:25.590Z,90.80
2019-02-28T17:33:54.353Z,90.60
2019-02-28T17:36:23.075Z,90.60
2019-02-28T17:38:51.767Z,90.70
2019-02-28T17:41:20.542Z,90.80
2019-02-28T17:44:08.512Z,90.30
2019-02-28T17:46:37.251Z,90.30
2019-02-28T17:49:11.710Z,90.10
2019-02-28T17:51:49.433Z,90.30
2019-02-28T17:54:36.323Z,90.00
2019-02-28T17:57:16.469Z,89.70
2019-02-28T17:59:47.301Z,89.10
2019-02-28T18:05:40.581Z,89.40
2019-02-28T18:08:21.539Z,89.90
2019-02-28T18:10:59.284Z,90.20
2019-02-28T18:13:43.628Z,90.30
2019-02-28T18:16:30.051Z,90.60
2019-02-28T18:22:40.165Z,90.80
2019-02-28T18:25:23.792Z,91.80
2019-02-28T18:28:04.568Z,91.70
2019-02-28T18:30:36.331Z,91.80
2019-02-28T18:33:06.719Z,91.80
2019-02-28T18:35:35.506Z,92.00
2019-02-28T18:38:04.365Z,92.50
2019-02-28T18:40:33.204Z,92.70
2019-02-28T18:43:02.251Z,92.70
2019-02-28T18:45:31.249Z,92.70
2019-02-28T18:48:00.169Z,92.70
2019-02-28T18:50:29.035Z,92.60
2019-02-28T18:52:57.810Z,92.50
2019-02-28T18:55:34.647Z,92.30
2019-02-28T18:57:56.987Z,92.40
2019-02-28T19:00:25.993Z,92.30
2019-02-28T19:02:54.754Z,91.80
2019-02-28T19:05:23.595Z,92.20
2019-02-28T19:07:52.372Z,92.00
2019-02-28T19:10:21.213Z,92.20
2019-02-28T19:12:53.014Z,92.00
2019-02-28T19:15:25.101Z,91.60
2019-02-28T19:17:53.852Z,91.50
2019-02-28T19:20:26.193Z,91.60
2019-02-28T19:22:55.139Z,91.80
2019-02-28T19:25:23.903Z,91.50
2019-02-28T19:27:52.596Z,91.50
2019-02-28T19:30:21.307Z,91.50
2019-02-28T19:32:50.189Z,91.40
2019-02-28T19:35:18.870Z,91.40
2019-02-28T19:37:47.728Z,91.20
2019-02-28T19:40:16.530Z,91.10
2019-02-28T19:42:49.348Z,91.20
2019-02-28T19:45:30.123Z,91.30
2019-02-28T19:47:58.852Z,91.00
2019-02-28T19:50:28.961Z,90.80
2019-02-28T19:53:00.092Z,90.70
2019-02-28T19:55:34.588Z,90.90
2019-02-28T19:58:11.176Z,90.70
2019-02-28T20:00:40.045Z,90.60
2019-02-28T20:03:14.881Z,90.70
2019-02-28T20:05:46.660Z,90.50
2019-02-28T20:08:19.138Z,90.80
2019-02-28T20:10:50.699Z,90.50
2019-02-28T20:18:40.198Z,90.60
2019-02-28T20:21:18.059Z,90.70
2019-02-28T20:23:51.091Z,90.80
2019-02-28T20:32:51.276Z,90.70
2019-02-28T20:39:25.845Z,90.60
2019-02-28T20:42:00.137Z,90.40
2019-02-28T20:44:29.914Z,90.10
2019-02-28T20:47:01.666Z,90.30
2019-02-28T20:49:42.695Z,90.30
2019-02-28T21:00:18.785Z,90.50
2019-02-28T21:02:47.777Z,90.50
2019-02-28T21:05:16.630Z,90.50
2019-02-28T21:07:45.417Z,90.30
2019-02-28T21:10:15.973Z,90.60
2019-02-28T21:12:59.585Z,90.70
2019-02-28T21:15:24.834Z,90.60
2019-02-28T21:17:56.734Z,90.70
2019-02-28T21:20:25.508Z,90.80
2019-02-28T21:22:54.522Z,90.80
2019-02-28T21:25:35.058Z,91.00
2019-02-28T21:45:14.909Z,89.80
2019-02-28T21:50:40.856Z,90.60
2019-02-28T21:53:09.549Z,91.00
2019-02-28T21:56:07.069Z,91.30
2019-02-28T22:18:20.972Z,93.10
2019-02-28T22:20:49.635Z,93.10
2019-02-28T22:23:18.305Z,93.00
2019-02-28T22:25:46.886Z,93.10
2019-02-28T22:28:15.589Z,93.20
2019-02-28T22:30:45.845Z,93.30
2019-02-28T22:33:25.086Z,93.20
2019-02-28T22:36:10.610Z,93.10
2019-02-28T22:38:41.698Z,93.10
2019-02-28T22:41:10.448Z,93.50
2019-02-28T22:47:09.530Z,93.00
2019-02-28T22:49:38.218Z,93.10
2019-02-28T22:52:08.374Z,92.90
2019-02-28T22:54:37.148Z,92.90
2019-02-28T22:57:05.936Z,93.00
2019-02-28T22:59:34.714Z,93.10
2019-02-28T23:05:31.924Z,93.40
2019-02-28T23:11:41.588Z,92.80
2019-02-28T23:14:12.178Z,92.70
2019-02-28T23:16:40.834Z,92.50
2019-02-28T23:19:09.702Z,92.90
2019-02-28T23:21:47.502Z,92.70
2019-02-28T23:27:44.978Z,92.90
2019-02-28T23:30:22.468Z,92.60
2019-02-28T23:33:00.466Z,92.40
2019-02-28T23:35:31.916Z,92.50
2019-02-28T23:38:02.787Z,92.70
2019-02-28T23:40:31.432Z,92.70
2019-02-28T23:43:00.201Z,92.50
2019-02-28T23:45:28.942Z,92.80
2019-02-28T23:48:02.519Z,93.10
2019-02-28T23:50:30.860Z,92.90
2019-02-28T23:53:02.707Z,92.70
2019-02-28T23:55:39.449Z,93.00
2019-02-28T23:58:42.763Z,93.10
